createdAt,value
2023-05-03T00:00:34.034Z,5.21
2023-05-03T00:03:07.099Z,5.12
2023-05-03T00:05:39.765Z,5.38
2023-05-03T00:08:09.527Z,4.99
2023-05-03T00:10:39.323Z,4.88
2023-05-03T00:13:08.987Z,4.84
2023-05-03T00:15:38.842Z,4.79
2023-05-03T00:18:09.000Z,5.37
2023-05-03T00:20:41.291Z,4.73
2023-05-03T00:23:10.952Z,4.95
2023-05-03T00:25:41.241Z,4.73
2023-05-03T00:28:10.995Z,4.73
2023-05-03T00:30:40.736Z,4.53
2023-05-03T00:33:10.612Z,4.54
2023-05-03T00:35:43.220Z,4.71
2023-05-03T00:38:14.418Z,4.69
2023-05-03T00:40:46.490Z,4.57
2023-05-03T00:43:16.298Z,4.70
2023-05-03T00:45:46.594Z,4.71
2023-05-03T00:48:17.818Z,4.63
2023-05-03T00:50:51.332Z,4.86
2023-05-03T00:53:21.198Z,4.67
2023-05-03T00:55:53.598Z,4.26
2023-05-03T00:58:23.643Z,4.54
2023-05-03T01:00:53.497Z,4.52
2023-05-03T01:03:24.062Z,4.15
2023-05-03T01:06:06.632Z,4.42
2023-05-03T01:08:43.926Z,4.45
2023-05-03T01:11:22.980Z,4.44
2023-05-03T01:13:58.256Z,4.22
2023-05-03T01:16:34.643Z,4.52
2023-05-03T01:19:10.203Z,4.77
2023-05-03T01:21:45.601Z,4.72
2023-05-03T01:24:24.888Z,4.75
2023-05-03T01:26:58.042Z,4.61
2023-05-03T01:29:27.716Z,4.60
2023-05-03T01:32:03.411Z,4.60
2023-05-03T01:34:40.794Z,4.72
2023-05-03T01:37:13.680Z,4.61
2023-05-03T01:39:49.109Z,4.65
2023-05-03T01:42:23.343Z,4.81
2023-05-03T01:44:53.690Z,4.69
2023-05-03T01:47:23.681Z,4.60
2023-05-03T01:49:53.395Z,4.47
2023-05-03T01:52:24.313Z,4.41
2023-05-03T01:54:53.991Z,4.45
2023-05-03T01:57:26.236Z,4.14
2023-05-03T01:59:56.140Z,4.30
2023-05-03T02:02:26.286Z,3.99
2023-05-03T02:04:56.071Z,3.85
2023-05-03T02:07:26.139Z,3.86
2023-05-03T02:09:55.893Z,4.17
2023-05-03T02:12:28.150Z,3.92
2023-05-03T02:14:57.969Z,4.01
2023-05-03T02:17:28.044Z,4.15
2023-05-03T02:19:58.430Z,3.82
2023-05-03T02:22:28.637Z,3.86
2023-05-03T02:24:58.547Z,3.88
2023-05-03T02:27:30.889Z,3.58
2023-05-03T02:30:00.838Z,3.58
2023-05-03T02:32:30.976Z,3.30
2023-05-03T02:35:00.748Z,3.13
2023-05-03T02:37:30.469Z,2.78
2023-05-03T02:40:00.364Z,2.93
2023-05-03T02:42:32.688Z,2.80
2023-05-03T02:45:03.489Z,2.56
2023-05-03T02:47:33.739Z,2.61
2023-05-03T02:50:03.935Z,2.49
2023-05-03T02:52:37.313Z,2.43
2023-05-03T02:55:08.132Z,2.36
2023-05-03T02:57:42.413Z,2.34
2023-05-03T03:00:15.937Z,2.20
2023-05-03T03:02:46.622Z,2.26
2023-05-03T03:05:16.632Z,2.46
2023-05-03T03:07:51.027Z,2.25
2023-05-03T03:10:21.301Z,2.27
2023-05-03T03:12:54.424Z,2.52
2023-05-03T03:15:30.673Z,2.77
2023-05-03T03:18:01.184Z,2.80
2023-05-03T03:20:31.188Z,3.16
2023-05-03T03:23:00.912Z,3.09
2023-05-03T03:25:30.715Z,2.82
2023-05-03T03:28:03.928Z,3.21
2023-05-03T03:30:34.856Z,3.70
2023-05-03T03:33:15.442Z,3.30
2023-05-03T03:35:45.755Z,3.02
2023-05-03T03:38:15.756Z,3.08
2023-05-03T03:40:54.477Z,2.75
2023-05-03T03:43:26.944Z,2.90
2023-05-03T03:45:56.945Z,2.84
2023-05-03T03:48:26.633Z,3.37
2023-05-03T03:50:56.971Z,3.50
2023-05-03T03:53:32.397Z,3.63
2023-05-03T03:56:02.573Z,3.41
2023-05-03T03:58:36.406Z,3.18
2023-05-03T04:01:09.039Z,3.19
2023-05-03T04:03:39.892Z,3.24
2023-05-03T04:06:10.416Z,3.16
2023-05-03T04:08:40.074Z,2.85
2023-05-03T04:11:14.144Z,2.78
2023-05-03T04:13:53.578Z,2.86
2023-05-03T04:16:24.710Z,4.63
2023-05-03T04:18:54.724Z,3.95
2023-05-03T04:21:24.655Z,3.29
2023-05-03T04:23:54.801Z,4.12
2023-05-03T04:26:31.747Z,4.06
2023-05-03T04:29:13.139Z,4.20
2023-05-03T04:31:44.093Z,4.87
2023-05-03T04:34:15.117Z,4.94
2023-05-03T04:36:47.723Z,4.79
2023-05-03T04:39:18.146Z,5.25
2023-05-03T04:41:50.204Z,5.80
2023-05-03T04:44:22.828Z,5.90
2023-05-03T04:46:53.354Z,6.71
2023-05-03T04:49:23.494Z,6.34
2023-05-03T04:51:53.903Z,6.54
2023-05-03T04:54:25.532Z,7.13
2023-05-03T04:56:56.943Z,7.36
2023-05-03T04:59:29.518Z,7.62
2023-05-03T05:01:59.636Z,7.82
2023-05-03T05:04:29.698Z,7.58
2023-05-03T05:06:59.531Z,7.25
2023-05-03T05:09:32.547Z,7.91
2023-05-03T05:12:05.088Z,8.33
2023-05-03T05:14:45.176Z,8.33
2023-05-03T05:17:14.911Z,9.50
2023-05-03T05:19:45.124Z,9.63
2023-05-03T05:22:14.973Z,9.67
2023-05-03T05:24:50.182Z,10.58
2023-05-03T05:27:20.619Z,8.80
2023-05-03T05:29:53.639Z,9.80
2023-05-03T05:32:23.533Z,9.94
2023-05-03T05:34:55.645Z,9.98
2023-05-03T05:37:28.712Z,10.19
2023-05-03T05:40:02.279Z,10.78
2023-05-03T05:42:38.638Z,10.57
2023-05-03T05:45:13.813Z,11.76
2023-05-03T05:47:44.507Z,11.44
2023-05-03T05:50:18.067Z,11.69
2023-05-03T05:52:54.746Z,11.09
2023-05-03T05:55:26.545Z,11.66
2023-05-03T05:57:57.452Z,11.13
2023-05-03T06:00:38.006Z,11.16
2023-05-03T06:03:07.774Z,10.69
2023-05-03T06:05:38.039Z,10.30
2023-05-03T06:08:08.540Z,10.27
2023-05-03T06:10:38.492Z,10.25
2023-05-03T06:13:08.268Z,9.85
2023-05-03T06:15:40.831Z,10.88
2023-05-03T06:18:10.747Z,11.80
2023-05-03T06:20:40.433Z,11.46
2023-05-03T06:23:10.559Z,10.41
2023-05-03T06:25:40.852Z,11.41
2023-05-03T06:28:11.051Z,11.07
2023-05-03T06:30:43.437Z,11.52
2023-05-03T06:33:16.957Z,11.34
2023-05-03T06:35:49.927Z,11.41
2023-05-03T06:38:21.481Z,11.97
2023-05-03T06:40:51.830Z,12.39
2023-05-03T06:43:22.439Z,12.12
2023-05-03T06:45:58.633Z,13.22
2023-05-03T06:48:28.868Z,12.52
2023-05-03T06:50:59.801Z,11.21
2023-05-03T06:53:29.500Z,12.80
2023-05-03T06:55:59.203Z,12.50
2023-05-03T06:58:29.262Z,13.09
2023-05-03T07:01:03.760Z,11.23
2023-05-03T07:03:33.612Z,12.34
2023-05-03T07:06:03.443Z,10.49
2023-05-03T07:08:33.149Z,12.37
2023-05-03T07:11:02.815Z,10.85
2023-05-03T07:17:01.039Z,9.16
2023-05-03T07:19:30.794Z,8.56
2023-05-03T07:22:00.792Z,8.65
2023-05-03T07:24:30.557Z,7.92
2023-05-03T07:27:00.918Z,8.70
2023-05-03T07:29:30.663Z,9.58
2023-05-03T07:32:03.833Z,10.16
2023-05-03T07:34:33.903Z,10.54
2023-05-03T07:37:03.629Z,10.21
2023-05-03T07:39:34.050Z,10.16
2023-05-03T07:42:04.056Z,10.72
2023-05-03T07:44:33.769Z,11.40
2023-05-03T07:47:06.206Z,10.52
2023-05-03T07:49:36.500Z,9.77
2023-05-03T07:52:06.397Z,9.87
2023-05-03T07:54:38.443Z,10.00
2023-05-03T07:57:08.387Z,9.87
2023-05-03T07:59:38.884Z,9.10
2023-05-03T08:02:11.251Z,9.18
2023-05-03T08:04:41.407Z,8.68
2023-05-03T08:07:11.966Z,9.66
2023-05-03T08:09:41.739Z,10.18
2023-05-03T08:12:11.553Z,11.12
2023-05-03T08:14:41.498Z,11.05
2023-05-03T08:17:13.823Z,10.95
2023-05-03T08:19:43.962Z,10.70
2023-05-03T08:22:13.898Z,10.75
2023-05-03T08:24:43.573Z,10.23
2023-05-03T08:27:13.399Z,10.59
2023-05-03T08:29:43.208Z,10.23
2023-05-03T08:32:15.526Z,9.84
2023-05-03T08:34:45.231Z,10.22
2023-05-03T08:37:14.907Z,9.95
2023-05-03T08:39:44.617Z,11.11
2023-05-03T08:42:14.389Z,9.99
2023-05-03T08:44:50.776Z,10.09
2023-05-03T08:47:23.123Z,11.31
2023-05-03T08:49:55.623Z,9.76
2023-05-03T08:52:25.523Z,10.44
2023-05-03T08:54:55.225Z,11.03
2023-05-03T08:57:27.108Z,10.39
2023-05-03T09:00:00.842Z,10.31
2023-05-03T09:02:39.541Z,9.95
2023-05-03T09:05:39.122Z,10.77
2023-05-03T09:08:11.346Z,9.30
2023-05-03T09:10:42.802Z,8.05
2023-05-03T09:13:13.613Z,8.80
2023-05-03T09:15:45.477Z,10.60
2023-05-03T09:18:19.541Z,9.71
2023-05-03T09:20:53.966Z,10.36
2023-05-03T09:23:32.982Z,10.15
2023-05-03T09:26:03.327Z,10.87
2023-05-03T09:28:33.282Z,10.71
2023-05-03T09:31:11.497Z,11.27
2023-05-03T09:33:48.053Z,10.96
2023-05-03T09:36:17.831Z,11.42
2023-05-03T09:38:47.643Z,11.52
2023-05-03T09:41:17.809Z,11.75
2023-05-03T09:43:56.289Z,11.19
2023-05-03T09:46:29.723Z,11.14
2023-05-03T09:49:02.989Z,10.70
2023-05-03T09:51:34.296Z,11.94
2023-05-03T09:54:05.212Z,11.83
2023-05-03T09:56:35.422Z,11.56
2023-05-03T09:59:07.196Z,11.83
2023-05-03T10:01:38.954Z,11.60
2023-05-03T10:04:12.613Z,11.58
2023-05-03T10:06:44.247Z,11.57
2023-05-03T10:09:20.897Z,12.18
2023-05-03T10:11:54.532Z,12.37
2023-05-03T10:14:24.775Z,12.48
2023-05-03T10:17:00.632Z,12.23
2023-05-03T10:19:37.736Z,11.83
2023-05-03T10:22:08.573Z,11.60
2023-05-03T10:24:39.313Z,11.85
2023-05-03T10:27:10.446Z,11.79
2023-05-03T10:29:54.470Z,10.96
2023-05-03T10:32:35.558Z,11.92
2023-05-03T10:35:11.994Z,10.85
2023-05-03T10:37:44.443Z,11.93
2023-05-03T10:40:16.544Z,10.22
2023-05-03T10:42:48.792Z,11.08
2023-05-03T10:45:26.784Z,11.52
2023-05-03T10:48:22.874Z,10.64
2023-05-03T10:50:55.461Z,11.26
2023-05-03T10:53:39.472Z,11.57
2023-05-03T10:56:11.064Z,11.13
2023-05-03T10:58:44.846Z,11.75
2023-05-03T11:01:16.032Z,11.96
2023-05-03T11:03:51.486Z,11.74
2023-05-03T11:06:36.475Z,12.16
2023-05-03T11:09:08.667Z,11.82
2023-05-03T11:11:40.003Z,12.07
2023-05-03T11:14:10.362Z,12.15
2023-05-03T11:16:48.268Z,12.55
2023-05-03T11:19:18.337Z,12.08
2023-05-03T11:21:50.669Z,12.80
2023-05-03T11:24:20.673Z,12.85
2023-05-03T11:26:50.555Z,10.94
2023-05-03T11:29:21.703Z,11.25
2023-05-03T11:31:51.577Z,11.68
2023-05-03T11:34:21.501Z,12.17
2023-05-03T11:36:53.765Z,12.49
2023-05-03T11:39:23.393Z,12.13
2023-05-03T11:42:06.524Z,12.57
2023-05-03T11:44:37.909Z,12.64
2023-05-03T11:47:09.406Z,12.95
2023-05-03T11:49:39.347Z,13.00
2023-05-03T11:52:14.639Z,12.93
2023-05-03T11:54:44.564Z,12.81
2023-05-03T11:57:16.340Z,11.81
2023-05-03T11:59:46.595Z,11.55
2023-05-03T12:02:17.624Z,13.07
2023-05-03T12:04:48.211Z,13.36
2023-05-03T12:07:22.706Z,13.56
2023-05-03T12:10:06.461Z,13.26
2023-05-03T12:12:47.554Z,12.48
2023-05-03T12:15:30.548Z,13.01
2023-05-03T12:18:03.753Z,12.65
2023-05-03T12:21:28.172Z,12.41
2023-05-03T12:23:27.180Z,11.88
2023-05-03T12:25:57.633Z,12.74
2023-05-03T12:28:28.715Z,12.56
2023-05-03T12:30:58.603Z,12.48
2023-05-03T12:33:28.740Z,13.21
2023-05-03T12:35:59.397Z,11.59
2023-05-03T12:38:31.880Z,12.61
2023-05-03T12:41:02.342Z,13.32
2023-05-03T12:43:32.170Z,13.60
2023-05-03T12:46:28.342Z,13.17
2023-05-03T12:48:54.274Z,13.09
2023-05-03T12:51:26.193Z,12.65
2023-05-03T12:54:01.767Z,12.62
2023-05-03T12:56:32.949Z,12.40
2023-05-03T12:59:31.681Z,12.07
2023-05-03T13:07:00.501Z,13.20
2023-05-03T13:10:12.388Z,13.40
2023-05-03T13:12:23.614Z,13.26
2023-05-03T13:14:54.952Z,14.19
2023-05-03T13:17:25.311Z,13.80
2023-05-03T13:19:56.676Z,14.17
2023-05-03T13:22:27.181Z,13.60
2023-05-03T13:24:59.466Z,13.96
2023-05-03T13:27:29.310Z,13.86
2023-05-03T13:29:59.353Z,13.44
2023-05-03T13:32:29.667Z,12.83
2023-05-03T13:34:59.616Z,12.97
2023-05-03T13:37:29.362Z,13.34
2023-05-03T13:40:02.038Z,13.29
2023-05-03T13:42:31.854Z,14.18
2023-05-03T13:45:01.573Z,12.95
2023-05-03T13:47:47.195Z,13.41
2023-05-03T13:50:21.497Z,13.59
2023-05-03T13:52:51.189Z,13.11
2023-05-03T13:55:26.454Z,12.77
2023-05-03T13:57:56.291Z,13.27
2023-05-03T14:00:26.362Z,14.27
2023-05-03T14:02:57.372Z,14.52
2023-05-03T14:05:27.396Z,14.37
2023-05-03T14:07:57.469Z,13.34
2023-05-03T14:10:30.106Z,14.13
2023-05-03T14:13:00.506Z,13.59
2023-05-03T14:15:30.370Z,13.28
2023-05-03T14:18:03.014Z,13.20
2023-05-03T14:20:36.005Z,13.29
2023-05-03T14:23:06.301Z,13.41
2023-05-03T14:25:38.608Z,12.85
2023-05-03T14:28:08.357Z,13.75
2023-05-03T14:30:38.167Z,12.89
2023-05-03T14:33:07.948Z,13.23
2023-05-03T14:35:37.824Z,13.79
2023-05-03T14:38:07.586Z,13.58
2023-05-03T14:40:39.871Z,13.08
2023-05-03T14:43:09.716Z,12.66
2023-05-03T14:45:39.394Z,13.71
2023-05-03T14:48:09.712Z,13.67
2023-05-03T14:50:39.527Z,13.37
2023-05-03T14:53:09.241Z,13.05
2023-05-03T14:55:41.599Z,13.09
2023-05-03T14:58:13.159Z,13.97
2023-05-03T15:00:43.797Z,13.13
2023-05-03T15:03:14.391Z,13.45
2023-05-03T15:05:48.481Z,13.23
2023-05-03T15:08:20.073Z,13.92
2023-05-03T15:10:52.683Z,14.04
2023-05-03T15:13:22.635Z,14.28
2023-05-03T15:15:52.490Z,14.20
2023-05-03T15:18:23.292Z,13.45
2023-05-03T15:20:53.071Z,13.88
2023-05-03T15:23:22.889Z,13.83
2023-05-03T15:25:55.300Z,13.62
2023-05-03T15:28:24.997Z,13.84
2023-05-03T15:30:54.760Z,14.53
2023-05-03T15:33:24.563Z,13.67
2023-05-03T15:35:54.799Z,14.21
2023-05-03T15:38:24.475Z,14.14
2023-05-03T15:40:56.820Z,14.36
2023-05-03T15:43:26.540Z,13.87
2023-05-03T15:45:56.353Z,13.58
2023-05-03T15:48:28.794Z,13.90
2023-05-03T15:50:58.474Z,13.54
2023-05-03T15:53:29.013Z,13.30
2023-05-03T15:56:02.565Z,13.57
2023-05-03T15:58:32.702Z,13.92
2023-05-03T16:01:05.325Z,13.53
2023-05-03T16:03:35.065Z,13.91
2023-05-03T16:06:04.912Z,13.62
2023-05-03T16:08:34.809Z,13.89
2023-05-03T16:11:08.700Z,14.11
2023-05-03T16:13:38.641Z,13.45
2023-05-03T16:16:08.992Z,13.44
2023-05-03T16:18:38.769Z,13.34
2023-05-03T16:21:08.548Z,13.67
2023-05-03T16:23:38.224Z,13.53
2023-05-03T16:26:18.070Z,13.80
2023-05-03T16:28:50.074Z,14.11
2023-05-03T16:31:19.934Z,13.42
2023-05-03T16:33:49.881Z,13.67
2023-05-03T16:36:19.966Z,13.51
2023-05-03T16:38:49.685Z,13.76
2023-05-03T16:41:22.026Z,13.28
2023-05-03T16:43:51.735Z,13.47
2023-05-03T16:46:21.689Z,13.27
2023-05-03T16:48:52.817Z,13.39
2023-05-03T16:51:25.581Z,14.02
2023-05-03T16:53:55.261Z,13.45
2023-05-03T16:56:30.069Z,13.67
2023-05-03T16:58:59.748Z,13.75
2023-05-03T17:01:29.500Z,13.17
2023-05-03T17:03:59.208Z,13.36
2023-05-03T17:06:29.349Z,13.59
2023-05-03T17:08:59.035Z,13.79
2023-05-03T17:11:31.355Z,13.44
2023-05-03T17:14:01.178Z,13.34
2023-05-03T17:16:31.266Z,13.41
2023-05-03T17:19:01.177Z,13.57
2023-05-03T17:21:31.595Z,13.02
2023-05-03T17:24:01.309Z,12.95
2023-05-03T17:26:34.918Z,12.89
2023-05-03T17:29:06.505Z,13.04
2023-05-03T17:31:36.471Z,12.84
2023-05-03T17:34:06.237Z,13.12
2023-05-03T17:36:36.016Z,13.17
2023-05-03T17:39:06.023Z,12.71
2023-05-03T17:41:39.383Z,12.97
2023-05-03T17:44:10.208Z,12.59
2023-05-03T17:46:40.091Z,12.80
2023-05-03T17:49:09.822Z,12.56
2023-05-03T17:51:39.582Z,12.60
2023-05-03T17:54:09.437Z,12.78
2023-05-03T17:56:41.811Z,12.23
2023-05-03T17:59:11.482Z,12.17
2023-05-03T18:01:41.369Z,12.10
2023-05-03T18:04:11.124Z,12.05
2023-05-03T18:06:40.802Z,11.89
2023-05-03T18:09:10.570Z,12.85
2023-05-03T18:11:45.199Z,12.58
2023-05-03T18:14:15.101Z,12.48
2023-05-03T18:16:45.019Z,12.84
2023-05-03T18:19:15.106Z,12.22
2023-05-03T18:21:44.993Z,12.36
2023-05-03T18:24:18.502Z,12.17
2023-05-03T18:26:51.188Z,12.49
2023-05-03T18:29:20.908Z,12.09
2023-05-03T18:31:52.549Z,12.72
2023-05-03T18:34:22.778Z,11.73
2023-05-03T18:36:52.557Z,11.86
2023-05-03T18:39:22.855Z,11.48
2023-05-03T18:41:56.093Z,11.55
2023-05-03T18:44:26.088Z,11.39
2023-05-03T18:46:56.337Z,12.18
2023-05-03T18:49:26.541Z,12.12
2023-05-03T18:51:56.381Z,12.32
2023-05-03T18:54:26.147Z,13.08
2023-05-03T18:57:00.057Z,12.49
2023-05-03T18:59:30.932Z,11.41
2023-05-03T19:02:00.644Z,11.24
2023-05-03T19:04:30.511Z,11.40
2023-05-03T19:07:01.080Z,10.95
2023-05-03T19:09:30.960Z,11.46
2023-05-03T19:12:03.283Z,10.36
2023-05-03T19:14:33.201Z,10.24
2023-05-03T19:17:02.985Z,10.95
2023-05-03T19:19:32.810Z,11.63
2023-05-03T19:22:02.739Z,11.55
2023-05-03T19:24:32.653Z,11.48
2023-05-03T19:27:05.195Z,11.27
2023-05-03T19:29:35.068Z,11.09
2023-05-03T19:32:04.843Z,10.26
2023-05-03T19:34:37.071Z,9.55
2023-05-03T19:37:07.192Z,9.83
2023-05-03T19:39:37.929Z,9.38
2023-05-03T19:42:10.276Z,10.23
2023-05-03T19:44:40.042Z,9.93
2023-05-03T19:47:09.819Z,10.50
2023-05-03T19:49:40.547Z,10.11
2023-05-03T19:52:10.273Z,10.90
2023-05-03T19:54:40.220Z,11.26
2023-05-03T19:57:12.733Z,10.52
2023-05-03T19:59:42.494Z,10.34
2023-05-03T20:02:12.381Z,10.80
2023-05-03T20:04:42.273Z,10.75
2023-05-03T20:07:12.041Z,9.93
2023-05-03T20:09:41.981Z,11.04
2023-05-03T20:12:14.591Z,11.34
2023-05-03T20:14:44.352Z,11.35
2023-05-03T20:17:14.127Z,10.72
2023-05-03T20:19:43.997Z,10.33
2023-05-03T20:22:13.866Z,9.17
2023-05-03T20:24:43.638Z,9.18
2023-05-03T20:27:15.878Z,9.43
2023-05-03T20:29:45.551Z,10.27
2023-05-03T20:32:15.448Z,10.88
2023-05-03T20:34:45.331Z,11.02
2023-05-03T20:37:15.005Z,10.07
2023-05-03T20:39:44.651Z,9.66
2023-05-03T20:42:16.951Z,10.29
2023-05-03T20:44:46.762Z,10.66
2023-05-03T20:47:16.675Z,10.32
2023-05-03T20:49:46.501Z,10.54
2023-05-03T20:52:16.296Z,10.44
2023-05-03T20:54:46.679Z,10.55
2023-05-03T20:57:18.973Z,9.94
2023-05-03T20:59:49.335Z,10.36
2023-05-03T21:02:19.064Z,8.42
2023-05-03T21:04:48.808Z,9.11
2023-05-03T21:07:18.731Z,8.78
2023-05-03T21:09:48.382Z,8.76
2023-05-03T21:12:20.716Z,8.30
2023-05-03T21:14:50.672Z,8.50
2023-05-03T21:17:20.413Z,8.52
2023-05-03T21:19:50.063Z,8.10
2023-05-03T21:22:19.812Z,8.20
2023-05-03T21:24:50.201Z,7.91
2023-05-03T21:27:22.635Z,8.71
2023-05-03T21:29:52.300Z,8.13
2023-05-03T21:32:21.996Z,9.32
2023-05-03T21:34:52.441Z,9.13
2023-05-03T21:37:22.269Z,9.74
2023-05-03T21:40:01.445Z,9.20
2023-05-03T21:42:34.989Z,8.48
2023-05-03T21:45:04.711Z,9.38
2023-05-03T21:47:34.470Z,8.84
2023-05-03T21:50:05.997Z,8.87
2023-05-03T21:52:36.447Z,7.73
2023-05-03T21:55:06.374Z,7.73
2023-05-03T21:57:38.646Z,6.90
2023-05-03T22:00:14.334Z,6.66
2023-05-03T22:02:44.071Z,6.95
2023-05-03T22:05:14.452Z,7.38
2023-05-03T22:07:44.701Z,6.71
2023-05-03T22:10:14.355Z,7.07
2023-05-03T22:12:46.690Z,6.71
2023-05-03T22:15:18.665Z,6.02
2023-05-03T22:17:48.426Z,6.51
2023-05-03T22:20:18.185Z,6.27
2023-05-03T22:22:48.003Z,5.96
2023-05-03T22:25:25.655Z,5.77
2023-05-03T22:27:57.964Z,5.88
2023-05-03T22:30:27.740Z,5.78
2023-05-03T22:32:57.574Z,5.87
2023-05-03T22:35:27.343Z,6.11
2023-05-03T22:37:57.139Z,6.01
2023-05-03T22:40:26.856Z,6.35
2023-05-03T22:43:01.278Z,7.11
2023-05-03T22:45:31.246Z,6.46
2023-05-03T22:48:01.187Z,6.45
2023-05-03T22:50:30.970Z,6.24
2023-05-03T22:53:00.682Z,5.74
2023-05-03T22:55:30.415Z,5.83
2023-05-03T22:58:03.880Z,5.84
2023-05-03T23:00:33.647Z,5.80
2023-05-03T23:03:03.471Z,6.84
2023-05-03T23:05:33.397Z,5.63
2023-05-03T23:08:03.084Z,5.53
2023-05-03T23:10:32.842Z,5.51
2023-05-03T23:13:05.376Z,5.51
2023-05-03T23:15:35.230Z,5.95
2023-05-03T23:18:05.182Z,6.39
2023-05-03T23:20:34.955Z,6.32
2023-05-03T23:23:04.678Z,5.97
2023-05-03T23:25:34.388Z,6.04
2023-05-03T23:28:06.926Z,6.63
2023-05-03T23:30:37.155Z,6.35
2023-05-03T23:33:07.482Z,6.65
2023-05-03T23:35:37.676Z,5.84
2023-05-03T23:38:07.486Z,5.14
2023-05-03T23:40:37.433Z,5.31
2023-05-03T23:43:09.748Z,6.33
2023-05-03T23:45:39.464Z,6.65
2023-05-03T23:48:09.492Z,5.84
2023-05-03T23:50:39.284Z,6.34
2023-05-03T23:53:09.000Z,5.85
2023-05-03T23:55:38.725Z,6.74
2023-05-03T23:58:11.137Z,5.70
